sensor_id;sensor_type;location;lat;lon;timestamp;pressure;altitude;pressure_sealevel;temperature;humidity
15308;BME280;7755;52.208;6.964;2024-02-23T00:03:07;98192.84;;;5.40;100.00
15308;BME280;7755;52.208;6.964;2024-02-23T00:07:12;98203.38;;;5.36;100.00
15308;BME280;7755;52.208;6.964;2024-02-23T00:11:17;98228.66;;;5.20;100.00
15308;BME280;7755;52.208;6.964;2024-02-23T00:15:22;98235.38;;;5.12;100.00
15308;BME280;7755;52.208;6.964;2024-02-23T00:19:30;98245.31;;;5.02;100.00
15308;BME280;7755;52.208;6.964;2024-02-23T00:23:35;98246.91;;;4.98;100.00
15308;BME280;7755;52.208;6.964;2024-02-23T00:27:39;98256.31;;;4.90;100.00
15308;BME280;7755;52.208;6.964;2024-02-23T00:31:45;98267.59;;;4.87;100.00
15308;BME280;7755;52.208;6.964;2024-02-23T00:35:53;98279.44;;;4.86;100.00
15308;BME280;7755;52.208;6.964;2024-02-23T00:39:58;98296.09;;;4.78;100.00
15308;BME280;7755;52.208;6.964;2024-02-23T00:44:03;98293.94;;;4.80;100.00
15308;BME280;7755;52.208;6.964;2024-02-23T00:48:08;98312.75;;;4.70;100.00
15308;BME280;7755;52.208;6.964;2024-02-23T00:52:17;98317.59;;;4.73;100.00
15308;BME280;7755;52.208;6.964;2024-02-23T00:56:22;98315.97;;;4.72;100.00
15308;BME280;7755;52.208;6.964;2024-02-23T01:00:40;98317.31;;;4.69;100.00
15308;BME280;7755;52.208;6.964;2024-02-23T01:04:45;98332.66;;;4.69;100.00
15308;BME280;7755;52.208;6.964;2024-02-23T01:08:53;98333.75;;;4.73;100.00
15308;BME280;7755;52.208;6.964;2024-02-23T01:12:58;98352.06;;;4.76;100.00
15308;BME280;7755;52.208;6.964;2024-02-23T01:17:03;98355.03;;;4.79;100.00
15308;BME280;7755;52.208;6.964;2024-02-23T01:21:08;98376.84;;;4.78;100.00
15308;BME280;7755;52.208;6.964;2024-02-23T01:25:16;98379.00;;;4.81;100.00
15308;BME280;7755;52.208;6.964;2024-02-23T01:29:21;98380.38;;;4.83;100.00
15308;BME280;7755;52.208;6.964;2024-02-23T01:33:27;98387.69;;;4.88;100.00
15308;BME280;7755;52.208;6.964;2024-02-23T01:37:32;98398.47;;;4.88;100.00
15308;BME280;7755;52.208;6.964;2024-02-23T01:41:42;98400.31;;;4.87;100.00
15308;BME280;7755;52.208;6.964;2024-02-23T01:45:48;98410.81;;;4.84;100.00
15308;BME280;7755;52.208;6.964;2024-02-23T01:49:53;98416.47;;;4.82;100.00
15308;BME280;7755;52.208;6.964;2024-02-23T01:53:59;98433.09;;;4.79;100.00
15308;BME280;7755;52.208;6.964;2024-02-23T01:58:07;98454.31;;;4.71;100.00
15308;BME280;7755;52.208;6.964;2024-02-23T02:02:13;98446.28;;;4.76;100.00
15308;BME280;7755;52.208;6.964;2024-02-23T02:06:18;98448.16;;;4.75;100.00
15308;BME280;7755;52.208;6.964;2024-02-23T02:10:23;98462.44;;;4.76;100.00
15308;BME280;7755;52.208;6.964;2024-02-23T02:14:30;98474.56;;;4.78;100.00
15308;BME280;7755;52.208;6.964;2024-02-23T02:18:35;98478.22;;;4.67;100.00
15308;BME280;7755;52.208;6.964;2024-02-23T02:22:40;98460.66;;;4.54;100.00
15308;BME280;7755;52.208;6.964;2024-02-23T02:26:45;98472.22;;;4.55;100.00
15308;BME280;7755;52.208;6.964;2024-02-23T02:30:54;98478.22;;;4.62;100.00
15308;BME280;7755;52.208;6.964;2024-02-23T02:34:59;98480.69;;;4.69;100.00
15308;BME280;7755;52.208;6.964;2024-02-23T02:39:04;98471.31;;;4.76;100.00
15308;BME280;7755;52.208;6.964;2024-02-23T02:43:12;98480.81;;;4.84;100.00
15308;BME280;7755;52.208;6.964;2024-02-23T02:47:19;98469.84;;;4.96;100.00
15308;BME280;7755;52.208;6.964;2024-02-23T02:51:25;98471.78;;;5.05;100.00
15308;BME280;7755;52.208;6.964;2024-02-23T02:55:29;98484.75;;;5.13;100.00
15308;BME280;7755;52.208;6.964;2024-02-23T02:59:35;98472.16;;;5.19;100.00
15308;BME280;7755;52.208;6.964;2024-02-23T03:03:42;98486.41;;;5.19;100.00
15308;BME280;7755;52.208;6.964;2024-02-23T03:07:47;98480.00;;;5.26;100.00
15308;BME280;7755;52.208;6.964;2024-02-23T03:11:52;98486.47;;;5.25;100.00
15308;BME280;7755;52.208;6.964;2024-02-23T03:15:57;98491.31;;;5.23;100.00
15308;BME280;7755;52.208;6.964;2024-02-23T03:20:06;98494.78;;;5.18;100.00
15308;BME280;7755;52.208;6.964;2024-02-23T03:24:13;98501.78;;;5.19;100.00
15308;BME280;7755;52.208;6.964;2024-02-23T03:28:18;98497.41;;;5.13;100.00
15308;BME280;7755;52.208;6.964;2024-02-23T03:32:23;98496.63;;;5.12;100.00
15308;BME280;7755;52.208;6.964;2024-02-23T03:36:30;98511.16;;;5.11;100.00
15308;BME280;7755;52.208;6.964;2024-02-23T03:40:35;98510.59;;;5.09;100.00
15308;BME280;7755;52.208;6.964;2024-02-23T03:44:40;98519.22;;;5.11;100.00
15308;BME280;7755;52.208;6.964;2024-02-23T03:48:46;98509.81;;;5.09;100.00
15308;BME280;7755;52.208;6.964;2024-02-23T03:52:54;98516.53;;;5.11;100.00
15308;BME280;7755;52.208;6.964;2024-02-23T03:56:59;98527.31;;;5.11;100.00
15308;BME280;7755;52.208;6.964;2024-02-23T04:01:04;98545.13;;;5.17;100.00
15308;BME280;7755;52.208;6.964;2024-02-23T04:05:09;98545.94;;;5.18;100.00
15308;BME280;7755;52.208;6.964;2024-02-23T04:09:17;98563.78;;;5.24;100.00
15308;BME280;7755;52.208;6.964;2024-02-23T04:13:22;98559.47;;;5.23;100.00
15308;BME280;7755;52.208;6.964;2024-02-23T04:17:27;98557.56;;;5.24;100.00
15308;BME280;7755;52.208;6.964;2024-02-23T04:21:33;98564.84;;;5.23;100.00
15308;BME280;7755;52.208;6.964;2024-02-23T04:25:40;98583.66;;;5.18;100.00
15308;BME280;7755;52.208;6.964;2024-02-23T04:29:45;98583.66;;;5.18;100.00
15308;BME280;7755;52.208;6.964;2024-02-23T04:33:50;98587.44;;;5.17;100.00
15308;BME280;7755;52.208;6.964;2024-02-23T04:37:55;98590.66;;;5.19;100.00
15308;BME280;7755;52.208;6.964;2024-02-23T04:42:02;98612.75;;;5.21;100.00
15308;BME280;7755;52.208;6.964;2024-02-23T04:46:07;98593.34;;;5.19;100.00
15308;BME280;7755;52.208;6.964;2024-02-23T04:50:12;98603.38;;;5.24;100.00
15308;BME280;7755;52.208;6.964;2024-02-23T04:54:17;98601.97;;;5.21;100.00
15308;BME280;7755;52.208;6.964;2024-02-23T04:58:25;98610.66;;;5.23;100.00
15308;BME280;7755;52.208;6.964;2024-02-23T05:02:35;98623.31;;;5.28;100.00
15308;BME280;7755;52.208;6.964;2024-02-23T05:06:40;98617.13;;;5.27;100.00
15308;BME280;7755;52.208;6.964;2024-02-23T05:10:46;98639.19;;;5.24;100.00
15308;BME280;7755;52.208;6.964;2024-02-23T05:14:54;98635.44;;;5.25;100.00
15308;BME280;7755;52.208;6.964;2024-02-23T05:18:59;98644.88;;;5.28;100.00
15308;BME280;7755;52.208;6.964;2024-02-23T05:23:04;98634.41;;;5.31;100.00
15308;BME280;7755;52.208;6.964;2024-02-23T05:27:09;98620.94;;;5.31;100.00
15308;BME280;7755;52.208;6.964;2024-02-23T05:31:17;98632.78;;;5.30;100.00
15308;BME280;7755;52.208;6.964;2024-02-23T05:35:22;98633.06;;;5.34;100.00
15308;BME280;7755;52.208;6.964;2024-02-23T05:39:27;98638.22;;;5.35;100.00
15308;BME280;7755;52.208;6.964;2024-02-23T05:43:33;98655.44;;;5.34;100.00
15308;BME280;7755;52.208;6.964;2024-02-23T05:47:41;98636.09;;;5.37;100.00
15308;BME280;7755;52.208;6.964;2024-02-23T05:51:49;98635.00;;;5.38;100.00
15308;BME280;7755;52.208;6.964;2024-02-23T05:55:54;98639.88;;;5.41;100.00
15308;BME280;7755;52.208;6.964;2024-02-23T05:59:59;98643.13;;;5.43;100.00
15308;BME280;7755;52.208;6.964;2024-02-23T06:04:14;98648.53;;;5.43;100.00
15308;BME280;7755;52.208;6.964;2024-02-23T06:08:19;98646.66;;;5.44;100.00
15308;BME280;7755;52.208;6.964;2024-02-23T06:12:24;98649.63;;;5.47;100.00
15308;BME280;7755;52.208;6.964;2024-02-23T06:16:29;98638.56;;;5.44;100.00
15308;BME280;7755;52.208;6.964;2024-02-23T06:20:37;98659.31;;;5.48;100.00
15308;BME280;7755;52.208;6.964;2024-02-23T06:24:42;98652.09;;;5.54;100.00
15308;BME280;7755;52.208;6.964;2024-02-23T06:28:47;98665.03;;;5.52;100.00
15308;BME280;7755;52.208;6.964;2024-02-23T06:32:51;98670.47;;;5.57;100.00
15308;BME280;7755;52.208;6.964;2024-02-23T06:36:59;98675.59;;;5.59;100.00
15308;BME280;7755;52.208;6.964;2024-02-23T06:41:05;98681.28;;;5.62;100.00
15308;BME280;7755;52.208;6.964;2024-02-23T06:45:12;98694.78;;;5.62;100.00
15308;BME280;7755;52.208;6.964;2024-02-23T06:49:17;98689.13;;;5.64;100.00
15308;BME280;7755;52.208;6.964;2024-02-23T06:53:25;98675.38;;;5.65;100.00
15308;BME280;7755;52.208;6.964;2024-02-23T06:57:30;98671.91;;;5.70;100.00
15308;BME280;7755;52.208;6.964;2024-02-23T07:01:35;98674.88;;;5.73;100.00
15308;BME280;7755;52.208;6.964;2024-02-23T07:05:41;98675.69;;;5.74;100.00
15308;BME280;7755;52.208;6.964;2024-02-23T07:09:50;98665.47;;;5.76;100.00
15308;BME280;7755;52.208;6.964;2024-02-23T07:13:55;98671.69;;;5.77;100.00
15308;BME280;7755;52.208;6.964;2024-02-23T07:18:00;98678.97;;;5.81;100.00
15308;BME280;7755;52.208;6.964;2024-02-23T07:22:05;98672.00;;;5.85;100.00
15308;BME280;7755;52.208;6.964;2024-02-23T07:26:12;98642.88;;;5.87;100.00
15308;BME280;7755;52.208;6.964;2024-02-23T07:30:18;98644.28;;;5.90;100.00
15308;BME280;7755;52.208;6.964;2024-02-23T07:34:23;98648.34;;;5.92;100.00
15308;BME280;7755;52.208;6.964;2024-02-23T07:38:28;98658.09;;;5.98;100.00
15308;BME280;7755;52.208;6.964;2024-02-23T07:42:35;98645.97;;;6.01;100.00
15308;BME280;7755;52.208;6.964;2024-02-23T07:46:40;98655.72;;;6.07;100.00
15308;BME280;7755;52.208;6.964;2024-02-23T07:50:45;98655.16;;;6.05;100.00
15308;BME280;7755;52.208;6.964;2024-02-23T07:54:51;98668.69;;;6.15;100.00
15308;BME280;7755;52.208;6.964;2024-02-23T07:58:59;98653.59;;;6.14;100.00
15308;BME280;7755;52.208;6.964;2024-02-23T08:03:05;98674.09;;;6.15;100.00
15308;BME280;7755;52.208;6.964;2024-02-23T08:07:11;98678.41;;;6.11;100.00
15308;BME280;7755;52.208;6.964;2024-02-23T08:11:17;98680.34;;;6.21;100.00
15308;BME280;7755;52.208;6.964;2024-02-23T08:15:25;98684.19;;;6.30;100.00
15308;BME280;7755;52.208;6.964;2024-02-23T08:19:30;98685.03;;;6.41;100.00
15308;BME280;7755;52.208;6.964;2024-02-23T08:23:35;98673.72;;;6.49;100.00
15308;BME280;7755;52.208;6.964;2024-02-23T08:27:40;98677.56;;;6.58;100.00
15308;BME280;7755;52.208;6.964;2024-02-23T08:31:48;98681.34;;;6.62;100.00
15308;BME280;7755;52.208;6.964;2024-02-23T08:35:53;98675.97;;;6.67;100.00
15308;BME280;7755;52.208;6.964;2024-02-23T08:39:58;98682.19;;;6.73;100.00
15308;BME280;7755;52.208;6.964;2024-02-23T08:44:03;98691.63;;;6.70;100.00
15308;BME280;7755;52.208;6.964;2024-02-23T08:48:11;98684.34;;;6.76;100.00
15308;BME280;7755;52.208;6.964;2024-02-23T08:52:17;98674.38;;;6.81;100.00
15308;BME280;7755;52.208;6.964;2024-02-23T08:56:22;98674.41;;;6.87;100.00
15308;BME280;7755;52.208;6.964;2024-02-23T09:00:27;98667.09;;;6.87;100.00
15308;BME280;7755;52.208;6.964;2024-02-23T09:04:34;98656.03;;;6.94;100.00
15308;BME280;7755;52.208;6.964;2024-02-23T09:08:40;98666.84;;;7.04;100.00
15308;BME280;7755;52.208;6.964;2024-02-23T09:12:45;98659.03;;;7.07;100.00
15308;BME280;7755;52.208;6.964;2024-02-23T09:16:50;98670.41;;;7.15;100.00
15308;BME280;7755;52.208;6.964;2024-02-23T09:20:59;98674.19;;;7.19;100.00
15308;BME280;7755;52.208;6.964;2024-02-23T09:25:05;98681.47;;;7.13;100.00
15308;BME280;7755;52.208;6.964;2024-02-23T09:29:10;98680.38;;;7.09;100.00
15308;BME280;7755;52.208;6.964;2024-02-23T09:33:15;98685.78;;;7.09;100.00
15308;BME280;7755;52.208;6.964;2024-02-23T09:37:23;98670.09;;;7.11;100.00
15308;BME280;7755;52.208;6.964;2024-02-23T09:41:28;98690.13;;;7.20;100.00
15308;BME280;7755;52.208;6.964;2024-02-23T09:45:33;98686.88;;;7.23;100.00
15308;BME280;7755;52.208;6.964;2024-02-23T09:49:39;98690.44;;;7.39;100.00
15308;BME280;7755;52.208;6.964;2024-02-23T09:53:49;98682.59;;;7.43;100.00
15308;BME280;7755;52.208;6.964;2024-02-23T09:57:57;98691.78;;;7.47;100.00
15308;BME280;7755;52.208;6.964;2024-02-23T10:02:06;98701.81;;;7.61;100.00
15308;BME280;7755;52.208;6.964;2024-02-23T10:06:12;98697.47;;;7.60;100.00
15308;BME280;7755;52.208;6.964;2024-02-23T10:10:24;98704.50;;;7.56;100.00
15308;BME280;7755;52.208;6.964;2024-02-23T10:14:29;98693.94;;;7.55;100.00
15308;BME280;7755;52.208;6.964;2024-02-23T10:18:34;98709.63;;;7.58;100.00
15308;BME280;7755;52.208;6.964;2024-02-23T10:22:39;98704.78;;;7.60;100.00
15308;BME280;7755;52.208;6.964;2024-02-23T10:26:46;98705.84;;;7.64;100.00
15308;BME280;7755;52.208;6.964;2024-02-23T10:30:51;98693.69;;;7.66;100.00
15308;BME280;7755;52.208;6.964;2024-02-23T10:35:00;98710.97;;;7.71;100.00
15308;BME280;7755;52.208;6.964;2024-02-23T10:39:07;98717.19;;;7.71;100.00
15308;BME280;7755;52.208;6.964;2024-02-23T10:43:19;98712.59;;;7.72;100.00
15308;BME280;7755;52.208;6.964;2024-02-23T10:47:24;98725.06;;;7.68;100.00
15308;BME280;7755;52.208;6.964;2024-02-23T10:51:31;98713.41;;;7.72;100.00
15308;BME280;7755;52.208;6.964;2024-02-23T10:55:37;98727.50;;;7.79;100.00
15308;BME280;7755;52.208;6.964;2024-02-23T10:59:46;98722.34;;;7.78;100.00
15308;BME280;7755;52.208;6.964;2024-02-23T11:03:51;98736.94;;;7.92;100.00
15308;BME280;7755;52.208;6.964;2024-02-23T11:07:58;98723.97;;;7.89;100.00
15308;BME280;7755;52.208;6.964;2024-02-23T11:12:04;98729.66;;;7.92;100.00
15308;BME280;7755;52.208;6.964;2024-02-23T11:16:21;98737.25;;;7.80;100.00
15308;BME280;7755;52.208;6.964;2024-02-23T11:20:34;98735.31;;;7.71;100.00
15308;BME280;7755;52.208;6.964;2024-02-23T11:24:43;98746.16;;;7.71;100.00
15308;BME280;7755;52.208;6.964;2024-02-23T11:28:48;98750.22;;;7.68;100.00
15308;BME280;7755;52.208;6.964;2024-02-23T11:33:00;98751.81;;;7.64;100.00
15308;BME280;7755;52.208;6.964;2024-02-23T11:37:09;98748.31;;;7.53;100.00
15308;BME280;7755;52.208;6.964;2024-02-23T11:41:17;98738.59;;;7.52;100.00
15308;BME280;7755;52.208;6.964;2024-02-23T11:45:23;98766.41;;;7.48;100.00
15308;BME280;7755;52.208;6.964;2024-02-23T11:49:31;98752.59;;;7.44;100.00
15308;BME280;7755;52.208;6.964;2024-02-23T11:53:36;98773.38;;;7.23;100.00
15308;BME280;7755;52.208;6.964;2024-02-23T11:57:42;98773.34;;;7.13;100.00
15308;BME280;7755;52.208;6.964;2024-02-23T12:01:49;98770.09;;;7.06;100.00
15308;BME280;7755;52.208;6.964;2024-02-23T12:05:58;98764.66;;;7.01;100.00
15308;BME280;7755;52.208;6.964;2024-02-23T12:10:04;98765.47;;;7.01;100.00
15308;BME280;7755;52.208;6.964;2024-02-23T12:14:09;98755.44;;;6.97;100.00
15308;BME280;7755;52.208;6.964;2024-02-23T12:18:15;98772.78;;;7.01;100.00
15308;BME280;7755;52.208;6.964;2024-02-23T12:22:24;98765.78;;;7.05;100.00
15308;BME280;7755;52.208;6.964;2024-02-23T12:26:29;98769.81;;;7.07;100.00
15308;BME280;7755;52.208;6.964;2024-02-23T12:30:34;98769.84;;;7.13;100.00
15308;BME280;7755;52.208;6.964;2024-02-23T12:34:39;98777.69;;;7.14;100.00
15308;BME280;7755;52.208;6.964;2024-02-23T12:38:47;98780.69;;;7.23;100.00
15308;BME280;7755;52.208;6.964;2024-02-23T12:42:52;98779.59;;;7.24;100.00
15308;BME280;7755;52.208;6.964;2024-02-23T12:46:57;98780.16;;;7.31;100.00
15308;BME280;7755;52.208;6.964;2024-02-23T12:51:03;98784.75;;;7.30;100.00
15308;BME280;7755;52.208;6.964;2024-02-23T12:55:11;98786.13;;;7.38;100.00
15308;BME280;7755;52.208;6.964;2024-02-23T12:59:16;98773.69;;;7.37;100.00
15308;BME280;7755;52.208;6.964;2024-02-23T13:03:21;98780.19;;;7.41;100.00
15308;BME280;7755;52.208;6.964;2024-02-23T13:07:26;98782.34;;;7.44;100.00
15308;BME280;7755;52.208;6.964;2024-02-23T13:11:35;98785.84;;;7.45;100.00
15308;BME280;7755;52.208;6.964;2024-02-23T13:15:42;98792.09;;;7.50;100.00
15308;BME280;7755;52.208;6.964;2024-02-23T13:19:47;98784.56;;;7.52;100.00
15308;BME280;7755;52.208;6.964;2024-02-23T13:24:08;98788.84;;;7.58;100.00
15308;BME280;7755;52.208;6.964;2024-02-23T13:28:16;98801.06;;;7.61;100.00
15308;BME280;7755;52.208;6.964;2024-02-23T13:32:21;98804.28;;;7.63;100.00
15308;BME280;7755;52.208;6.964;2024-02-23T13:36:26;98807.03;;;7.73;100.00
15308;BME280;7755;52.208;6.964;2024-02-23T13:40:31;98808.38;;;7.76;100.00
15308;BME280;7755;52.208;6.964;2024-02-23T13:44:38;98811.38;;;7.79;100.00
15308;BME280;7755;52.208;6.964;2024-02-23T13:48:43;98819.75;;;7.73;100.00
15308;BME280;7755;52.208;6.964;2024-02-23T13:52:48;98818.09;;;7.72;100.00
15308;BME280;7755;52.208;6.964;2024-02-23T13:56:53;98815.94;;;7.69;100.00
15308;BME280;7755;52.208;6.964;2024-02-23T14:01:01;98829.16;;;7.65;100.00
15308;BME280;7755;52.208;6.964;2024-02-23T14:05:07;98838.38;;;7.64;100.00
15308;BME280;7755;52.208;6.964;2024-02-23T14:09:12;98841.06;;;7.64;100.00
15308;BME280;7755;52.208;6.964;2024-02-23T14:13:17;98850.53;;;7.61;100.00
15308;BME280;7755;52.208;6.964;2024-02-23T14:17:24;98852.13;;;7.57;100.00
15308;BME280;7755;52.208;6.964;2024-02-23T14:21:30;98845.94;;;7.62;100.00
15308;BME280;7755;52.208;6.964;2024-02-23T14:25:35;98849.72;;;7.56;100.00
15308;BME280;7755;52.208;6.964;2024-02-23T14:29:40;98856.75;;;7.57;100.00
15308;BME280;7755;52.208;6.964;2024-02-23T14:33:47;98866.47;;;7.48;100.00
15308;BME280;7755;52.208;6.964;2024-02-23T14:37:53;98853.72;;;7.43;100.00
15308;BME280;7755;52.208;6.964;2024-02-23T14:41:58;98848.59;;;7.47;100.00
15308;BME280;7755;52.208;6.964;2024-02-23T14:46:03;98849.69;;;7.46;100.00
15308;BME280;7755;52.208;6.964;2024-02-23T14:50:13;98848.88;;;7.50;100.00
15308;BME280;7755;52.208;6.964;2024-02-23T14:54:19;98850.75;;;7.45;100.00
15308;BME280;7755;52.208;6.964;2024-02-23T14:58:24;98856.69;;;7.42;100.00
15308;BME280;7755;52.208;6.964;2024-02-23T15:02:29;98851.56;;;7.40;100.00
15308;BME280;7755;52.208;6.964;2024-02-23T15:06:37;98851.28;;;7.42;100.00
15308;BME280;7755;52.208;6.964;2024-02-23T15:10:42;98844.81;;;7.43;100.00
15308;BME280;7755;52.208;6.964;2024-02-23T15:14:47;98862.66;;;7.44;100.00
15308;BME280;7755;52.208;6.964;2024-02-23T15:18:52;98862.13;;;7.47;100.00
15308;BME280;7755;52.208;6.964;2024-02-23T15:23:00;98852.16;;;7.52;100.00
15308;BME280;7755;52.208;6.964;2024-02-23T15:27:05;98859.16;;;7.58;100.00
15308;BME280;7755;52.208;6.964;2024-02-23T15:31:11;98856.75;;;7.57;100.00
15308;BME280;7755;52.208;6.964;2024-02-23T15:35:16;98860.78;;;7.54;100.00
15308;BME280;7755;52.208;6.964;2024-02-23T15:39:25;98864.34;;;7.60;100.00
15308;BME280;7755;52.208;6.964;2024-02-23T15:43:30;98868.13;;;7.59;100.00
15308;BME280;7755;52.208;6.964;2024-02-23T15:47:35;98856.75;;;7.62;100.00
15308;BME280;7755;52.208;6.964;2024-02-23T15:51:40;98867.81;;;7.55;100.00
15308;BME280;7755;52.208;6.964;2024-02-23T15:55:59;98865.16;;;7.60;100.00
15308;BME280;7755;52.208;6.964;2024-02-23T16:00:06;98871.63;;;7.64;100.00
15308;BME280;7755;52.208;6.964;2024-02-23T16:04:12;98877.59;;;7.61;100.00
15308;BME280;7755;52.208;6.964;2024-02-23T16:08:18;98879.22;;;7.68;100.00
15308;BME280;7755;52.208;6.964;2024-02-23T16:12:26;98870.56;;;7.71;100.00
15308;BME280;7755;52.208;6.964;2024-02-23T16:16:31;98871.41;;;7.76;100.00
15308;BME280;7755;52.208;6.964;2024-02-23T16:20:36;98879.00;;;7.79;100.00
15308;BME280;7755;52.208;6.964;2024-02-23T16:24:41;98878.19;;;7.84;100.00
15308;BME280;7755;52.208;6.964;2024-02-23T16:28:50;98867.34;;;7.79;100.00
15308;BME280;7755;52.208;6.964;2024-02-23T16:32:55;98868.41;;;7.78;100.00
15308;BME280;7755;52.208;6.964;2024-02-23T16:37:00;98874.66;;;7.73;100.00
15308;BME280;7755;52.208;6.964;2024-02-23T16:41:05;98875.44;;;7.69;100.00
15308;BME280;7755;52.208;6.964;2024-02-23T16:45:13;98881.13;;;7.67;100.00
15308;BME280;7755;52.208;6.964;2024-02-23T16:49:18;98881.41;;;7.65;100.00
15308;BME280;7755;52.208;6.964;2024-02-23T16:53:23;98891.91;;;7.57;100.00
15308;BME280;7755;52.208;6.964;2024-02-23T16:57:28;98904.84;;;7.50;100.00
15308;BME280;7755;52.208;6.964;2024-02-23T17:01:35;98917.81;;;7.48;100.00
15308;BME280;7755;52.208;6.964;2024-02-23T17:05:40;98916.47;;;7.45;100.00
15308;BME280;7755;52.208;6.964;2024-02-23T17:09:46;98927.84;;;7.47;100.00
15308;BME280;7755;52.208;6.964;2024-02-23T17:13:51;98920.53;;;7.48;100.00
15308;BME280;7755;52.208;6.964;2024-02-23T17:18:00;98927.28;;;7.45;100.00
15308;BME280;7755;52.208;6.964;2024-02-23T17:22:05;98935.69;;;7.49;100.00
15308;BME280;7755;52.208;6.964;2024-02-23T17:26:10;98939.44;;;7.43;100.00
15308;BME280;7755;52.208;6.964;2024-02-23T17:30:15;98944.56;;;7.39;100.00
15308;BME280;7755;52.208;6.964;2024-02-23T17:34:23;98940.47;;;7.36;100.00
15308;BME280;7755;52.208;6.964;2024-02-23T17:38:28;98946.16;;;7.35;100.00
15308;BME280;7755;52.208;6.964;2024-02-23T17:42:33;98954.22;;;7.30;100.00
15308;BME280;7755;52.208;6.964;2024-02-23T17:46:38;98969.63;;;7.29;100.00
15308;BME280;7755;52.208;6.964;2024-02-23T17:50:46;98990.41;;;7.19;100.00
15308;BME280;7755;52.208;6.964;2024-02-23T17:54:51;98966.19;;;6.97;100.00
15308;BME280;7755;52.208;6.964;2024-02-23T17:58:56;98964.28;;;6.97;100.00
15308;BME280;7755;52.208;6.964;2024-02-23T18:03:02;98974.59;;;7.00;100.00
15308;BME280;7755;52.208;6.964;2024-02-23T18:07:09;98974.59;;;7.00;100.00
15308;BME280;7755;52.208;6.964;2024-02-23T18:11:14;98968.66;;;6.98;100.00
15308;BME280;7755;52.208;6.964;2024-02-23T18:15:20;98981.22;;;6.82;100.00
15308;BME280;7755;52.208;6.964;2024-02-23T18:19:25;98981.41;;;6.76;100.00
15308;BME280;7755;52.208;6.964;2024-02-23T18:23:33;98984.44;;;6.79;100.00
15308;BME280;7755;52.208;6.964;2024-02-23T18:27:38;98975.53;;;6.84;100.00
15308;BME280;7755;52.208;6.964;2024-02-23T18:31:43;98981.00;;;6.89;100.00
15308;BME280;7755;52.208;6.964;2024-02-23T18:35:48;98973.09;;;6.82;100.00
15308;BME280;7755;52.208;6.964;2024-02-23T18:39:56;98977.31;;;6.68;100.00
15308;BME280;7755;52.208;6.964;2024-02-23T18:44:02;98985.34;;;6.58;100.00
15308;BME280;7755;52.208;6.964;2024-02-23T18:48:07;98989.06;;;6.52;100.00
15308;BME280;7755;52.208;6.964;2024-02-23T18:52:12;98999.06;;;6.51;100.00
15308;BME280;7755;52.208;6.964;2024-02-23T18:56:19;98997.94;;;6.47;100.00
15308;BME280;7755;52.208;6.964;2024-02-23T19:00:24;99000.56;;;6.42;100.00
15308;BME280;7755;52.208;6.964;2024-02-23T19:04:29;99005.09;;;6.37;100.00
15308;BME280;7755;52.208;6.964;2024-02-23T19:08:35;98999.66;;;6.32;100.00
15308;BME280;7755;52.208;6.964;2024-02-23T19:12:43;98996.34;;;6.24;100.00
15308;BME280;7755;52.208;6.964;2024-02-23T19:16:48;98993.88;;;6.23;100.00
15308;BME280;7755;52.208;6.964;2024-02-23T19:20:53;98993.88;;;6.23;100.00
15308;BME280;7755;52.208;6.964;2024-02-23T19:24:58;99002.25;;;6.21;100.00
15308;BME280;7755;52.208;6.964;2024-02-23T19:29:05;99000.13;;;6.23;100.00
15308;BME280;7755;52.208;6.964;2024-02-23T19:33:11;99005.56;;;6.28;100.00
15308;BME280;7755;52.208;6.964;2024-02-23T19:37:16;99009.88;;;6.29;100.00
15308;BME280;7755;52.208;6.964;2024-02-23T19:41:21;99010.47;;;6.32;100.00
15308;BME280;7755;52.208;6.964;2024-02-23T19:45:29;99001.84;;;6.35;100.00
15308;BME280;7755;52.208;6.964;2024-02-23T19:49:34;99013.78;;;6.39;100.00
15308;BME280;7755;52.208;6.964;2024-02-23T19:53:40;99012.19;;;6.43;100.00
15308;BME280;7755;52.208;6.964;2024-02-23T19:57:45;99009.25;;;6.44;100.00
15308;BME280;7755;52.208;6.964;2024-02-23T20:01:53;99014.13;;;6.47;100.00
15308;BME280;7755;52.208;6.964;2024-02-23T20:06:00;99017.94;;;6.51;100.00
15308;BME280;7755;52.208;6.964;2024-02-23T20:10:06;99011.22;;;6.54;100.00
15308;BME280;7755;52.208;6.964;2024-02-23T20:14:11;99011.53;;;6.57;100.00
15308;BME280;7755;52.208;6.964;2024-02-23T20:18:19;99011.81;;;6.61;100.00
15308;BME280;7755;52.208;6.964;2024-02-23T20:22:24;99006.69;;;6.60;100.00
15308;BME280;7755;52.208;6.964;2024-02-23T20:26:29;99011.28;;;6.59;100.00
15308;BME280;7755;52.208;6.964;2024-02-23T20:30:34;99010.47;;;6.59;100.00
15308;BME280;7755;52.208;6.964;2024-02-23T20:34:41;99018.03;;;6.62;100.00
15308;BME280;7755;52.208;6.964;2024-02-23T20:38:46;99016.97;;;6.63;100.00
15308;BME280;7755;52.208;6.964;2024-02-23T20:42:51;99019.66;;;6.63;100.00
15308;BME280;7755;52.208;6.964;2024-02-23T20:46:56;99012.13;;;6.65;100.00
15308;BME280;7755;52.208;6.964;2024-02-23T20:51:06;99021.88;;;6.66;100.00
15308;BME280;7755;52.208;6.964;2024-02-23T20:55:11;99010.53;;;6.69;100.00
15308;BME280;7755;52.208;6.964;2024-02-23T20:59:16;99012.16;;;6.70;100.00
15308;BME280;7755;52.208;6.964;2024-02-23T21:03:21;99017.56;;;6.70;100.00
15308;BME280;7755;52.208;6.964;2024-02-23T21:07:29;99007.84;;;6.69;100.00
15308;BME280;7755;52.208;6.964;2024-02-23T21:11:34;99006.75;;;6.70;100.00
15308;BME280;7755;52.208;6.964;2024-02-23T21:15:40;99012.75;;;6.72;100.00
15308;BME280;7755;52.208;6.964;2024-02-23T21:19:45;99027.06;;;6.72;100.00
15308;BME280;7755;52.208;6.964;2024-02-23T21:23:52;99031.38;;;6.73;100.00
15308;BME280;7755;52.208;6.964;2024-02-23T21:27:57;99033.25;;;6.73;100.00
15308;BME280;7755;52.208;6.964;2024-02-23T21:32:02;99039.53;;;6.78;100.00
15308;BME280;7755;52.208;6.964;2024-02-23T21:36:08;99037.59;;;6.74;100.00
15308;BME280;7755;52.208;6.964;2024-02-23T21:40:15;99040.81;;;6.71;100.00
15308;BME280;7755;52.208;6.964;2024-02-23T21:44:20;99040.28;;;6.74;100.00
15308;BME280;7755;52.208;6.964;2024-02-23T21:48:25;99044.94;;;6.78;100.00
15308;BME280;7755;52.208;6.964;2024-02-23T21:52:30;99036.56;;;6.80;100.00
15308;BME280;7755;52.208;6.964;2024-02-23T21:56:41;99044.41;;;6.81;100.00
15308;BME280;7755;52.208;6.964;2024-02-23T22:00:47;99037.13;;;6.82;100.00